createdAt,value
2019-02-14T00:01:34.056Z,17.10
2019-02-14T00:04:03.006Z,16.80
2019-02-14T00:06:31.871Z,17.77
2019-02-14T00:09:00.779Z,17.60
2019-02-14T00:11:30.414Z,17.20
2019-02-14T00:14:01.061Z,17.60
2019-02-14T00:16:29.998Z,16.13
2019-02-14T00:18:59.137Z,17.00
2019-02-14T00:21:27.996Z,17.50
2019-02-14T00:23:56.821Z,17.20
2019-02-14T00:26:25.729Z,16.80
2019-02-14T00:28:54.820Z,17.17
2019-02-14T00:31:24.081Z,17.60
2019-02-14T00:33:53.011Z,16.87
2019-02-14T00:36:21.835Z,16.87
2019-02-14T00:38:50.741Z,17.60
2019-02-14T00:41:20.366Z,17.53
2019-02-14T00:43:49.531Z,17.13
2019-02-14T00:46:18.540Z,18.37
2019-02-14T00:48:47.374Z,17.57
2019-02-14T00:51:16.448Z,17.73
2019-02-14T00:53:45.339Z,17.47
2019-02-14T00:56:14.600Z,17.13
2019-02-14T00:58:43.755Z,17.03
2019-02-14T01:01:12.866Z,18.33
2019-02-14T01:03:42.270Z,18.23
2019-02-14T01:17:34.590Z,19.20
2019-02-14T01:20:03.895Z,19.10
2019-02-14T01:22:32.938Z,19.30
2019-02-14T01:25:02.037Z,19.70
2019-02-14T01:27:31.256Z,19.27
2019-02-14T01:30:00.450Z,19.87
2019-02-14T01:32:29.341Z,16.47
2019-02-14T01:34:58.195Z,20.03
2019-02-14T01:37:27.038Z,20.63
2019-02-14T01:39:55.854Z,20.03
2019-02-14T01:42:24.830Z,19.70
2019-02-14T01:44:53.755Z,19.50
2019-02-14T01:47:22.662Z,20.53
2019-02-14T01:49:51.524Z,19.97
2019-02-14T01:52:20.423Z,21.00
2019-02-14T01:54:49.238Z,20.00
2019-02-14T01:57:18.171Z,20.53
2019-02-14T01:59:47.331Z,19.90
2019-02-14T02:02:16.330Z,22.00
2019-02-14T02:04:46.347Z,21.57
2019-02-14T02:07:15.484Z,21.13
2019-02-14T02:09:44.600Z,21.13
2019-02-14T02:12:13.514Z,20.33
2019-02-14T02:14:42.643Z,22.17
2019-02-14T02:17:13.696Z,21.60
2019-02-14T02:19:42.828Z,22.00
2019-02-14T02:22:14.953Z,20.97
2019-02-14T02:24:44.464Z,21.97
2019-02-14T02:27:13.281Z,21.20
2019-02-14T02:29:42.371Z,22.93
2019-02-14T02:32:12.555Z,21.63
2019-02-14T02:34:41.753Z,23.67
2019-02-14T02:37:11.434Z,22.77
2019-02-14T02:39:40.513Z,22.20
2019-02-14T02:42:09.645Z,22.40
2019-02-14T02:44:38.762Z,22.97
2019-02-14T02:47:07.836Z,22.57
2019-02-14T02:49:36.903Z,23.37
2019-02-14T02:52:06.089Z,21.73
2019-02-14T02:54:35.024Z,22.43
2019-02-14T02:57:03.938Z,23.27
2019-02-14T02:59:33.449Z,22.93
2019-02-14T03:02:03.613Z,21.73
2019-02-14T03:04:32.619Z,22.23
2019-02-14T03:07:01.618Z,22.60
2019-02-14T03:09:30.759Z,23.00
2019-02-14T03:11:59.756Z,23.20
2019-02-14T03:14:28.541Z,23.10
2019-02-14T03:16:58.246Z,22.77
2019-02-14T03:19:27.169Z,23.40
2019-02-14T03:21:56.605Z,22.17
2019-02-14T03:24:25.827Z,22.90
2019-02-14T03:26:55.121Z,23.27
2019-02-14T03:29:23.989Z,22.70
2019-02-14T03:31:53.631Z,22.80
2019-02-14T03:34:22.703Z,22.97
2019-02-14T03:36:52.549Z,23.07
2019-02-14T03:39:21.704Z,23.90
2019-02-14T03:41:50.682Z,22.70
2019-02-14T03:44:19.800Z,24.00
2019-02-14T03:46:48.780Z,24.07
2019-02-14T03:49:17.791Z,24.03
2019-02-14T03:51:46.667Z,22.03
2019-02-14T03:54:16.511Z,23.07
2019-02-14T03:56:46.503Z,22.93
2019-02-14T03:59:15.582Z,24.00
2019-02-14T04:01:44.571Z,23.27
2019-02-14T04:04:13.497Z,23.47
2019-02-14T04:06:42.625Z,23.33
2019-02-14T04:09:11.519Z,23.73
2019-02-14T04:11:40.403Z,22.90
2019-02-14T04:14:09.358Z,22.97
2019-02-14T04:16:38.625Z,24.30
2019-02-14T04:19:07.825Z,25.73
2019-02-14T04:21:36.780Z,24.10
2019-02-14T04:24:05.655Z,24.23
2019-02-14T04:26:34.728Z,23.67
2019-02-14T04:29:06.335Z,23.00
2019-02-14T04:31:35.232Z,23.83
2019-02-14T04:34:04.067Z,24.93
2019-02-14T04:36:36.095Z,23.00
2019-02-14T04:39:05.224Z,24.17
2019-02-14T04:41:34.225Z,24.40
2019-02-14T04:44:03.034Z,23.63
2019-02-14T04:46:31.881Z,24.70
2019-02-14T04:49:00.862Z,24.47
2019-02-14T04:51:30.652Z,25.27
2019-02-14T04:53:59.655Z,23.50
2019-02-14T04:56:28.514Z,24.47
2019-02-14T04:58:57.351Z,23.93
2019-02-14T05:01:26.503Z,25.03
2019-02-14T05:03:55.340Z,24.37
2019-02-14T05:06:24.757Z,24.73
2019-02-14T05:08:54.497Z,24.40
2019-02-14T05:11:23.758Z,23.90
2019-02-14T05:13:53.348Z,24.10
2019-02-14T05:16:24.382Z,25.13
2019-02-14T05:18:53.292Z,24.10
2019-02-14T05:21:22.345Z,24.20
2019-02-14T05:23:51.315Z,24.83
2019-02-14T05:26:20.168Z,25.30
2019-02-14T05:28:49.057Z,25.73
2019-02-14T05:31:18.162Z,26.73
2019-02-14T05:33:47.102Z,25.90
2019-02-14T05:36:15.937Z,24.87
2019-02-14T05:38:44.734Z,25.70
2019-02-14T05:41:13.650Z,26.00
2019-02-14T05:43:42.843Z,23.97
2019-02-14T05:46:13.563Z,24.37
2019-02-14T05:48:42.649Z,24.03
2019-02-14T05:51:14.186Z,24.77
2019-02-14T05:53:42.988Z,26.07
2019-02-14T05:56:11.976Z,25.47
2019-02-14T05:58:41.043Z,26.50
2019-02-14T06:01:11.570Z,25.07
2019-02-14T06:03:41.362Z,26.50
2019-02-14T06:06:10.300Z,25.23
2019-02-14T06:08:39.296Z,24.27
2019-02-14T06:11:08.206Z,25.50
2019-02-14T06:13:38.285Z,26.67
2019-02-14T06:16:09.027Z,27.20
2019-02-14T06:18:39.170Z,24.03
2019-02-14T06:21:10.740Z,24.87
2019-02-14T06:23:43.076Z,23.97
2019-02-14T06:26:12.724Z,25.27
2019-02-14T06:28:41.603Z,24.33
2019-02-14T06:31:11.200Z,25.53
2019-02-14T06:33:40.117Z,25.27
2019-02-14T06:36:09.766Z,26.10
2019-02-14T06:38:40.215Z,23.83
2019-02-14T06:41:13.170Z,25.17
2019-02-14T06:43:42.021Z,25.60
2019-02-14T06:46:12.873Z,26.20
2019-02-14T06:48:41.737Z,24.57
2019-02-14T06:51:10.728Z,24.90
2019-02-14T06:53:39.681Z,24.83
2019-02-14T06:56:09.232Z,24.13
2019-02-14T06:58:38.308Z,23.63
2019-02-14T07:01:07.252Z,25.83
2019-02-14T07:03:37.126Z,25.13
2019-02-14T07:06:07.024Z,24.37
2019-02-14T07:08:36.452Z,25.10
2019-02-14T07:11:06.168Z,24.87
2019-02-14T07:13:36.653Z,24.40
2019-02-14T07:16:06.314Z,25.60
2019-02-14T07:18:46.047Z,24.73
2019-02-14T07:21:14.918Z,24.83
2019-02-14T07:23:43.800Z,25.70
2019-02-14T07:26:12.762Z,25.20
2019-02-14T07:28:41.985Z,28.85
2019-02-14T07:31:11.004Z,26.10
2019-02-14T07:33:39.809Z,27.10
2019-02-14T07:36:09.186Z,25.47
2019-02-14T07:38:38.326Z,24.60
2019-02-14T07:41:07.185Z,26.27
2019-02-14T07:43:36.305Z,26.40
2019-02-14T07:46:05.603Z,26.43
2019-02-14T07:48:34.997Z,24.93
2019-02-14T07:51:07.454Z,24.70
2019-02-14T07:53:35.540Z,24.93
2019-02-14T07:56:04.445Z,25.23
2019-02-14T07:58:33.761Z,26.00
2019-02-14T08:01:03.007Z,26.07
2019-02-14T08:03:32.387Z,23.43
2019-02-14T08:06:02.291Z,25.47
2019-02-14T08:08:31.674Z,25.37
2019-02-14T08:11:01.203Z,25.97
2019-02-14T08:13:30.734Z,25.17
2019-02-14T08:15:59.722Z,26.20
2019-02-14T08:18:28.924Z,25.73
2019-02-14T08:20:57.971Z,24.77
2019-02-14T08:23:27.390Z,24.80
2019-02-14T08:25:56.339Z,25.93
2019-02-14T08:28:25.273Z,25.97
2019-02-14T08:30:54.292Z,26.37
2019-02-14T08:33:23.234Z,25.53
2019-02-14T08:35:52.148Z,24.90
2019-02-14T08:38:20.983Z,25.57
2019-02-14T08:40:50.101Z,27.27
2019-02-14T08:43:19.265Z,24.13
2019-02-14T08:45:48.517Z,26.53
2019-02-14T08:48:18.098Z,25.13
2019-02-14T08:50:47.960Z,27.93
2019-02-14T08:53:17.301Z,25.90
2019-02-14T08:55:46.423Z,25.97
2019-02-14T08:58:17.817Z,24.07
2019-02-14T09:00:46.923Z,25.20
2019-02-14T09:03:16.038Z,24.97
2019-02-14T09:05:45.360Z,23.20
2019-02-14T09:08:14.332Z,24.60
2019-02-14T09:10:43.560Z,24.30
2019-02-14T09:13:17.159Z,24.43
2019-02-14T09:15:43.982Z,25.50
2019-02-14T09:18:13.070Z,23.80
2019-02-14T09:20:41.880Z,23.00
2019-02-14T09:23:11.091Z,25.10
2019-02-14T09:25:40.154Z,25.17
2019-02-14T09:28:09.409Z,25.00
2019-02-14T09:30:38.513Z,24.43
2019-02-14T09:33:07.320Z,24.90
2019-02-14T09:35:37.602Z,24.30
2019-02-14T09:38:06.435Z,24.97
2019-02-14T09:40:35.497Z,23.87
2019-02-14T09:43:04.998Z,24.47
2019-02-14T09:45:34.096Z,24.53
2019-02-14T09:48:02.976Z,24.67
2019-02-14T09:50:32.319Z,23.13
2019-02-14T09:53:01.124Z,23.03
2019-02-14T09:55:30.119Z,23.90
2019-02-14T09:57:58.998Z,23.57
2019-02-14T10:00:29.154Z,25.13
2019-02-14T10:02:59.788Z,23.43
2019-02-14T10:05:29.154Z,24.73
2019-02-14T10:07:58.298Z,25.57
2019-02-14T10:10:27.114Z,27.37
2019-02-14T10:12:56.553Z,23.73
2019-02-14T10:15:25.457Z,24.77
2019-02-14T10:17:54.265Z,22.07
2019-02-14T10:20:23.289Z,23.80
2019-02-14T10:22:52.327Z,22.40
2019-02-14T10:25:21.400Z,23.37
2019-02-14T10:27:50.347Z,23.10
2019-02-14T10:30:19.455Z,24.17
2019-02-14T10:32:48.656Z,23.10
2019-02-14T10:35:18.326Z,24.77
2019-02-14T10:37:47.230Z,23.60
2019-02-14T10:40:16.364Z,23.63
2019-02-14T10:42:45.400Z,23.13
2019-02-14T10:45:17.003Z,23.63
2019-02-14T10:47:46.386Z,20.60
2019-02-14T10:50:16.341Z,22.33
2019-02-14T10:52:45.446Z,24.20
2019-02-14T10:55:14.938Z,24.00
2019-02-14T10:57:43.900Z,21.90
2019-02-14T11:00:19.411Z,22.87
2019-02-14T11:02:49.451Z,21.60
2019-02-14T11:05:19.042Z,21.70
2019-02-14T11:07:48.619Z,21.50
2019-02-14T11:10:17.705Z,21.97
2019-02-14T11:12:47.521Z,23.23
2019-02-14T11:15:17.844Z,21.83
2019-02-14T11:17:49.845Z,22.73
2019-02-14T11:20:18.961Z,21.37
2019-02-14T11:22:49.282Z,20.87
2019-02-14T11:25:21.666Z,21.93
2019-02-14T11:27:50.533Z,21.67
2019-02-14T11:30:19.791Z,21.97
2019-02-14T11:32:49.280Z,20.47
2019-02-14T11:35:18.159Z,22.60
2019-02-14T11:37:46.950Z,20.13
2019-02-14T11:40:16.374Z,20.90
2019-02-14T11:42:45.289Z,22.27
2019-02-14T11:45:15.622Z,19.53
2019-02-14T11:47:44.891Z,19.57
2019-02-14T11:50:14.072Z,17.70
2019-02-14T11:52:43.114Z,17.07
2019-02-14T11:55:12.134Z,16.53
2019-02-14T11:57:41.105Z,18.53
2019-02-14T12:00:14.683Z,18.00
2019-02-14T12:02:44.325Z,17.47
2019-02-14T12:05:13.389Z,17.43
2019-02-14T12:07:42.604Z,16.57
2019-02-14T12:10:13.809Z,16.40
2019-02-14T12:12:42.916Z,16.97
2019-02-14T12:15:12.095Z,17.47
2019-02-14T12:17:41.796Z,17.20
2019-02-14T12:20:12.521Z,17.77
2019-02-14T12:22:46.792Z,15.13
2019-02-14T12:25:13.252Z,15.40
2019-02-14T12:27:42.448Z,15.30
2019-02-14T12:30:14.083Z,15.00
2019-02-14T12:32:44.124Z,15.20
2019-02-14T12:35:13.440Z,14.23
2019-02-14T12:37:43.082Z,13.20
2019-02-14T12:40:14.746Z,13.17
2019-02-14T12:42:43.608Z,13.33
2019-02-14T12:45:20.277Z,12.83
2019-02-14T12:47:46.696Z,12.17
2019-02-14T12:50:15.504Z,11.63
2019-02-14T12:52:47.768Z,11.53
2019-02-14T12:55:16.981Z,12.17
2019-02-14T12:57:48.419Z,11.50
2019-02-14T13:00:22.205Z,11.40
2019-02-14T13:02:51.286Z,10.80
2019-02-14T13:05:21.405Z,10.53
2019-02-14T13:07:50.765Z,10.47
2019-02-14T13:10:31.925Z,10.63
2019-02-14T13:13:00.888Z,10.53
2019-02-14T13:15:30.803Z,8.63
2019-02-14T13:18:00.068Z,8.60
2019-02-14T13:20:29.068Z,9.23
2019-02-14T13:23:03.257Z,8.53
2019-02-14T13:25:32.134Z,9.50
2019-02-14T13:28:03.470Z,8.47
2019-02-14T13:30:32.578Z,8.50
2019-02-14T13:33:01.479Z,6.97
2019-02-14T13:35:37.337Z,7.40
2019-02-14T13:38:06.759Z,7.33
2019-02-14T13:40:36.049Z,7.40
2019-02-14T13:43:06.577Z,7.30
2019-02-14T13:45:35.466Z,7.57
2019-02-14T13:48:05.378Z,7.70
2019-02-14T13:50:34.893Z,7.37
2019-02-14T13:53:05.310Z,7.30
2019-02-14T13:55:37.144Z,7.63
2019-02-14T13:58:06.633Z,7.63
2019-02-14T14:00:35.848Z,7.70
2019-02-14T14:03:05.239Z,7.67
2019-02-14T14:05:36.103Z,8.27
2019-02-14T14:08:06.527Z,7.43
2019-02-14T14:10:35.710Z,7.93
2019-02-14T14:13:04.825Z,7.07
2019-02-14T14:15:34.325Z,7.67
2019-02-14T14:18:03.288Z,6.97
2019-02-14T14:20:32.978Z,6.97
2019-02-14T14:23:01.773Z,7.03
2019-02-14T14:25:30.817Z,7.50
2019-02-14T14:27:59.806Z,7.60
2019-02-14T14:30:28.730Z,7.30
2019-02-14T14:32:58.011Z,7.50
2019-02-14T14:35:28.326Z,7.43
2019-02-14T14:37:59.787Z,6.77
2019-02-14T14:40:29.252Z,7.43
2019-02-14T14:43:32.580Z,7.53
2019-02-14T14:46:20.587Z,6.80
2019-02-14T14:48:51.675Z,6.87
2019-02-14T14:51:21.340Z,6.80
2019-02-14T14:53:50.672Z,7.07
2019-02-14T14:56:19.465Z,6.80
2019-02-14T14:58:48.703Z,6.93
2019-02-14T15:01:17.873Z,6.70
2019-02-14T15:03:51.640Z,7.03
2019-02-14T15:06:18.685Z,6.47
2019-02-14T15:08:47.589Z,7.07
2019-02-14T15:11:16.454Z,7.33
2019-02-14T15:13:46.695Z,6.97
2019-02-14T15:16:17.706Z,7.03
2019-02-14T15:18:46.744Z,6.83
2019-02-14T15:21:15.568Z,7.30
2019-02-14T15:23:44.402Z,6.80
2019-02-14T15:26:13.234Z,7.20
2019-02-14T15:28:56.191Z,7.20
2019-02-14T15:31:12.658Z,6.73
2019-02-14T15:33:41.949Z,7.03
2019-02-14T15:36:11.080Z,6.93
2019-02-14T15:38:40.239Z,6.80
2019-02-14T15:41:09.070Z,6.63
2019-02-14T15:43:39.790Z,6.80
2019-02-14T15:46:09.047Z,6.67
2019-02-14T15:48:38.279Z,6.70
2019-02-14T15:51:07.254Z,6.90
2019-02-14T15:53:36.160Z,7.70
2019-02-14T15:56:07.199Z,7.37
2019-02-14T15:58:44.820Z,7.27
2019-02-14T16:01:28.950Z,6.90
2019-02-14T16:03:57.496Z,7.27
2019-02-14T16:06:28.404Z,7.33
2019-02-14T16:08:58.001Z,7.53
2019-02-14T16:11:27.027Z,7.47
2019-02-14T16:13:57.145Z,7.33
2019-02-14T16:16:26.634Z,8.80
2019-02-14T16:19:01.621Z,8.43
2019-02-14T16:21:53.698Z,8.40
2019-02-14T16:24:24.854Z,8.97
2019-02-14T16:26:54.643Z,8.87
2019-02-14T16:29:25.018Z,8.47
2019-02-14T16:31:54.698Z,8.33
2019-02-14T16:34:25.276Z,7.97
2019-02-14T16:36:54.835Z,7.47
2019-02-14T16:39:25.752Z,7.60
2019-02-14T16:41:55.122Z,8.00
2019-02-14T16:44:24.480Z,7.77
2019-02-14T16:46:54.089Z,7.70
2019-02-14T16:49:23.898Z,7.87
2019-02-14T16:51:54.026Z,8.30
2019-02-14T16:54:23.148Z,7.73
2019-02-14T16:56:52.058Z,7.53
2019-02-14T16:59:22.931Z,7.70
2019-02-14T17:01:55.370Z,8.07
2019-02-14T17:04:24.241Z,7.57
2019-02-14T17:09:51.079Z,8.03
2019-02-14T17:12:20.108Z,7.27
2019-02-14T17:14:49.052Z,8.27
2019-02-14T17:17:27.698Z,7.93
2019-02-14T17:20:24.390Z,7.93
2019-02-14T17:22:56.520Z,7.67
2019-02-14T17:25:36.750Z,8.43
2019-02-14T17:28:13.014Z,9.20
2019-02-14T17:30:48.612Z,8.00
2019-02-14T17:33:42.834Z,8.60
2019-02-14T17:36:20.282Z,8.50
2019-02-14T17:38:49.171Z,8.50
2019-02-14T17:41:18.135Z,8.20
2019-02-14T17:43:47.397Z,8.40
2019-02-14T17:46:17.545Z,8.73
2019-02-14T17:48:46.955Z,8.20
2019-02-14T17:51:27.550Z,7.87
2019-02-14T17:53:57.163Z,8.70
2019-02-14T17:56:26.049Z,8.53
2019-02-14T17:58:55.690Z,8.50
2019-02-14T18:01:25.772Z,8.60
2019-02-14T18:04:03.731Z,8.97
2019-02-14T18:06:32.711Z,9.30
2019-02-14T18:09:31.403Z,9.53
2019-02-14T18:12:00.220Z,9.50
2019-02-14T18:14:30.482Z,9.30
2019-02-14T18:16:59.737Z,9.47
2019-02-14T18:22:45.488Z,9.43
2019-02-14T18:25:14.553Z,9.03
2019-02-14T18:27:43.693Z,9.23
2019-02-14T18:30:12.879Z,8.90
2019-02-14T18:32:41.888Z,8.97
2019-02-14T18:35:11.654Z,8.37
2019-02-14T18:37:41.940Z,9.27
2019-02-14T18:40:11.123Z,9.00
2019-02-14T18:42:40.953Z,9.37
2019-02-14T18:45:11.843Z,9.03
2019-02-14T18:47:41.444Z,9.27
2019-02-14T18:50:11.757Z,9.37
2019-02-14T18:52:40.744Z,9.30
2019-02-14T18:55:10.926Z,9.60
2019-02-14T18:57:40.147Z,10.07
2019-02-14T19:00:11.743Z,9.70
2019-02-14T19:02:40.699Z,8.73
2019-02-14T19:05:10.480Z,9.00
2019-02-14T19:07:39.523Z,9.80
2019-02-14T19:10:11.580Z,10.73
2019-02-14T19:12:40.819Z,12.03
2019-02-14T19:15:11.134Z,11.60
2019-02-14T19:17:40.195Z,11.47
2019-02-14T19:20:09.468Z,10.07
2019-02-14T19:22:38.550Z,10.30
2019-02-14T19:25:07.568Z,10.00
2019-02-14T19:27:37.085Z,10.37
2019-02-14T19:30:06.309Z,10.60
2019-02-14T19:32:35.191Z,10.43
2019-02-14T19:35:04.700Z,10.07
2019-02-14T19:37:33.507Z,10.03
2019-02-14T19:40:02.399Z,10.13
2019-02-14T19:42:33.761Z,10.47
2019-02-14T19:45:06.070Z,10.47
2019-02-14T19:47:35.319Z,10.57
2019-02-14T19:50:11.192Z,10.43
2019-02-14T19:52:41.640Z,10.13
2019-02-14T19:55:10.727Z,10.60
2019-02-14T19:57:39.733Z,11.50
2019-02-14T20:00:10.562Z,10.23
2019-02-14T20:02:39.381Z,10.73
2019-02-14T20:05:09.239Z,10.93
2019-02-14T20:07:38.106Z,10.73
2019-02-14T20:10:08.560Z,10.50
2019-02-14T20:12:37.790Z,9.70
2019-02-14T20:15:09.573Z,10.00
2019-02-14T20:17:38.639Z,10.20
2019-02-14T20:20:08.657Z,10.43
2019-02-14T20:22:38.107Z,10.40
2019-02-14T20:25:07.911Z,10.07
2019-02-14T20:27:36.898Z,10.57
2019-02-14T20:30:06.167Z,10.07
2019-02-14T20:32:35.686Z,10.27
2019-02-14T20:35:04.881Z,9.87
2019-02-14T20:37:46.020Z,10.07
2019-02-14T20:40:15.200Z,9.97
2019-02-14T20:42:46.568Z,9.87
2019-02-14T20:45:15.774Z,9.90
2019-02-14T20:47:45.286Z,10.57
2019-02-14T20:50:14.778Z,9.70
2019-02-14T20:52:45.940Z,10.17
2019-02-14T20:55:16.619Z,9.87
2019-02-14T20:57:45.822Z,10.73
2019-02-14T21:00:29.468Z,10.90
2019-02-14T21:02:59.015Z,9.63
2019-02-14T21:05:28.589Z,10.30
2019-02-14T21:08:04.996Z,10.93
2019-02-14T21:10:38.131Z,11.27
2019-02-14T21:13:07.442Z,11.23
2019-02-14T21:15:36.805Z,10.63
2019-02-14T21:18:06.078Z,10.63
2019-02-14T21:20:35.570Z,10.70
2019-02-14T21:23:04.629Z,11.03
2019-02-14T21:25:34.145Z,11.03
2019-02-14T21:28:03.302Z,11.07
2019-02-14T21:30:35.547Z,11.67
2019-02-14T21:33:09.925Z,10.70
2019-02-14T21:35:38.901Z,13.07
2019-02-14T21:38:08.429Z,12.33
2019-02-14T21:40:37.629Z,11.63
2019-02-14T21:43:12.747Z,11.60
2019-02-14T21:45:41.886Z,12.07
2019-02-14T21:48:11.358Z,12.20
2019-02-14T21:50:40.534Z,11.33
2019-02-14T21:53:10.198Z,11.53
2019-02-14T21:55:39.338Z,11.43
2019-02-14T21:58:08.823Z,10.87
2019-02-14T22:00:37.845Z,11.27
2019-02-14T22:03:06.814Z,10.30
2019-02-14T22:05:37.821Z,10.13
2019-02-14T22:08:09.676Z,10.67
2019-02-14T22:10:38.575Z,10.77
2019-02-14T22:13:07.479Z,10.37
2019-02-14T22:15:39.391Z,10.80
2019-02-14T22:18:08.440Z,10.07
2019-02-14T22:20:37.771Z,10.60
2019-02-14T22:23:06.701Z,10.73
2019-02-14T22:25:38.171Z,10.33
2019-02-14T22:28:08.549Z,9.87
2019-02-14T22:30:44.477Z,9.63
2019-02-14T22:33:15.254Z,10.13
2019-02-14T22:35:44.181Z,10.47
2019-02-14T22:38:13.480Z,10.10
2019-02-14T22:40:42.577Z,9.97
2019-02-14T22:43:11.552Z,10.23
2019-02-14T22:45:41.052Z,10.23
2019-02-14T22:48:10.102Z,9.93
2019-02-14T22:59:48.303Z,10.57
2019-02-14T23:02:17.210Z,9.70
2019-02-14T23:04:46.841Z,9.90
2019-02-14T23:07:15.777Z,9.53
2019-02-14T23:09:44.724Z,9.67
2019-02-14T23:12:13.867Z,9.57
2019-02-14T23:14:48.910Z,9.00
2019-02-14T23:17:18.407Z,9.20
2019-02-14T23:19:56.403Z,9.00
2019-02-14T23:22:29.368Z,9.80
2019-02-14T23:25:03.456Z,9.97
2019-02-14T23:27:33.278Z,10.20
2019-02-14T23:30:09.590Z,9.93
2019-02-14T23:32:42.938Z,9.87
2019-02-14T23:35:24.838Z,9.40
2019-02-14T23:38:08.554Z,9.70
2019-02-14T23:40:45.977Z,9.60
2019-02-14T23:43:16.146Z,9.53
2019-02-14T23:45:53.011Z,9.20
2019-02-14T23:48:22.057Z,8.93
2019-02-14T23:50:51.566Z,10.00
2019-02-14T23:53:20.506Z,9.77
2019-02-14T23:55:49.684Z,9.90
2019-02-14T23:58:18.737Z,9.60
